createdAt,value
2018-12-05T00:02:25.345Z,70.47
2018-12-05T00:04:53.768Z,69.56
2018-12-05T00:07:22.021Z,69.70
2018-12-05T00:09:50.288Z,70.12
2018-12-05T00:12:18.555Z,70.37
2018-12-05T00:14:46.831Z,70.52
2018-12-05T00:17:15.047Z,70.51
2018-12-05T00:19:43.285Z,70.45
2018-12-05T00:22:11.515Z,70.50
2018-12-05T00:24:39.770Z,70.46
2018-12-05T00:27:08.043Z,70.25
2018-12-05T00:29:36.292Z,70.03
2018-12-05T00:32:04.627Z,70.43
2018-12-05T00:34:32.840Z,70.79
2018-12-05T00:37:01.206Z,70.87
2018-12-05T00:39:29.472Z,70.42
2018-12-05T00:41:57.682Z,70.54
2018-12-05T00:44:25.918Z,70.70
2018-12-05T00:46:54.146Z,70.38
2018-12-05T00:49:22.346Z,70.81
2018-12-05T00:51:50.569Z,70.80
2018-12-05T00:54:18.774Z,70.26
2018-12-05T00:56:47.030Z,70.41
2018-12-05T00:59:15.275Z,70.56
2018-12-05T01:01:43.567Z,70.17
2018-12-05T01:04:11.802Z,70.48
2018-12-05T01:06:40.199Z,70.47
2018-12-05T01:09:12.735Z,70.52
2018-12-05T01:11:41.301Z,70.05
2018-12-05T01:14:09.911Z,70.21
2018-12-05T01:16:38.134Z,70.57
2018-12-05T01:19:06.401Z,70.71
2018-12-05T01:21:34.582Z,70.29
2018-12-05T01:24:02.908Z,70.64
2018-12-05T01:26:37.741Z,70.55
2018-12-05T01:29:05.996Z,70.32
2018-12-05T01:31:34.210Z,70.04
2018-12-05T01:34:02.417Z,69.82
2018-12-05T01:36:30.656Z,69.73
2018-12-05T01:38:58.899Z,69.95
2018-12-05T01:41:27.143Z,69.78
2018-12-05T01:43:55.364Z,69.40
2018-12-05T01:46:23.678Z,69.99
2018-12-05T01:48:51.863Z,69.95
2018-12-05T01:51:20.149Z,70.09
2018-12-05T01:53:48.394Z,69.50
2018-12-05T01:56:16.626Z,69.61
2018-12-05T01:58:44.860Z,69.92
2018-12-05T02:01:13.157Z,70.07
2018-12-05T02:03:41.455Z,70.38
2018-12-05T02:06:09.674Z,69.61
2018-12-05T02:08:37.903Z,69.79
2018-12-05T02:11:06.128Z,69.73
2018-12-05T02:13:34.354Z,69.98
2018-12-05T02:16:02.572Z,70.10
2018-12-05T02:18:30.770Z,70.27
2018-12-05T02:20:59.074Z,70.30
2018-12-05T02:23:27.382Z,70.14
2018-12-05T02:25:55.618Z,70.43
2018-12-05T02:28:23.888Z,70.84
2018-12-05T02:30:52.216Z,70.48
2018-12-05T02:33:20.512Z,70.60
2018-12-05T02:35:48.730Z,70.47
2018-12-05T02:38:16.982Z,70.11
2018-12-05T02:40:45.307Z,70.32
2018-12-05T02:43:13.549Z,70.40
2018-12-05T02:45:41.738Z,70.45
2018-12-05T02:48:09.984Z,69.75
2018-12-05T02:50:38.219Z,70.37
2018-12-05T02:53:06.458Z,70.28
2018-12-05T02:55:34.757Z,70.52
2018-12-05T02:58:02.963Z,70.32
2018-12-05T03:00:31.317Z,70.33
2018-12-05T03:02:59.588Z,70.61
2018-12-05T03:05:27.883Z,70.22
2018-12-05T03:07:56.156Z,70.43
2018-12-05T03:10:24.404Z,70.78
2018-12-05T03:12:52.629Z,70.01
2018-12-05T03:15:20.865Z,70.47
2018-12-05T03:17:49.101Z,70.46
2018-12-05T03:20:17.357Z,69.95
2018-12-05T03:22:45.589Z,70.01
2018-12-05T03:25:13.787Z,70.87
2018-12-05T03:27:42.155Z,70.32
2018-12-05T03:30:10.400Z,70.74
2018-12-05T03:32:38.712Z,70.69
2018-12-05T03:35:07.181Z,70.65
2018-12-05T03:37:35.446Z,70.86
2018-12-05T03:40:03.839Z,70.92
2018-12-05T03:42:32.078Z,70.42
2018-12-05T03:45:00.315Z,70.81
2018-12-05T03:47:28.528Z,71.28
2018-12-05T03:50:03.458Z,71.38
2018-12-05T03:52:32.303Z,71.47
2018-12-05T03:55:00.598Z,70.77
2018-12-05T03:57:28.902Z,70.99
2018-12-05T03:59:57.197Z,70.91
2018-12-05T04:02:25.423Z,70.78
2018-12-05T04:04:53.633Z,71.00
2018-12-05T04:07:21.849Z,70.56
2018-12-05T04:09:50.082Z,70.53
2018-12-05T04:12:18.358Z,70.29
2018-12-05T04:14:46.663Z,70.50
2018-12-05T04:17:14.909Z,70.77
2018-12-05T04:19:43.187Z,71.19
2018-12-05T04:22:11.411Z,70.84
2018-12-05T04:24:39.611Z,71.33
2018-12-05T04:27:07.873Z,71.21
2018-12-05T04:29:36.197Z,71.71
2018-12-05T04:32:04.420Z,71.55
2018-12-05T04:34:32.645Z,71.97
2018-12-05T04:37:00.871Z,71.79
2018-12-05T04:39:29.120Z,71.93
2018-12-05T04:41:57.436Z,71.90
2018-12-05T04:44:25.706Z,71.75
2018-12-05T04:46:54.047Z,71.91
2018-12-05T04:49:22.291Z,71.74
2018-12-05T04:51:50.517Z,71.51
2018-12-05T04:54:18.816Z,71.37
2018-12-05T04:56:47.013Z,71.35
2018-12-05T04:59:15.268Z,71.97
2018-12-05T05:01:43.497Z,71.77
2018-12-05T05:04:11.827Z,71.97
2018-12-05T05:06:41.884Z,72.29
2018-12-05T05:09:10.319Z,71.69
2018-12-05T05:11:38.637Z,71.69
2018-12-05T05:14:06.902Z,72.07
2018-12-05T05:16:35.121Z,72.11
2018-12-05T05:19:03.394Z,71.65
2018-12-05T05:21:32.329Z,71.90
2018-12-05T05:24:00.585Z,71.98
2018-12-05T05:26:28.865Z,71.56
2018-12-05T05:28:57.114Z,72.14
2018-12-05T05:31:25.450Z,71.62
2018-12-05T05:33:53.722Z,71.90
2018-12-05T05:36:21.986Z,71.97
2018-12-05T05:38:50.255Z,72.58
2018-12-05T05:41:18.472Z,72.55
2018-12-05T05:43:46.691Z,72.90
2018-12-05T05:46:14.895Z,72.79
2018-12-05T05:48:43.132Z,72.69
2018-12-05T05:51:11.413Z,72.88
2018-12-05T05:53:39.604Z,72.40
2018-12-05T05:56:07.915Z,72.73
2018-12-05T05:58:36.121Z,72.36
2018-12-05T06:01:04.486Z,72.38
2018-12-05T06:03:32.723Z,72.55
2018-12-05T06:06:01.033Z,72.27
2018-12-05T06:08:29.378Z,72.37
2018-12-05T06:10:57.593Z,72.75
2018-12-05T06:13:25.837Z,73.03
2018-12-05T06:15:54.116Z,73.68
2018-12-05T06:18:22.436Z,72.84
2018-12-05T06:20:50.683Z,72.83
2018-12-05T06:23:18.935Z,72.86
2018-12-05T06:25:47.261Z,72.42
2018-12-05T06:28:15.989Z,72.11
2018-12-05T06:30:44.267Z,72.25
2018-12-05T06:33:12.571Z,72.26
2018-12-05T06:35:40.831Z,72.08
2018-12-05T06:38:09.121Z,73.07
2018-12-05T06:40:37.367Z,72.36
2018-12-05T06:43:05.670Z,72.56
2018-12-05T06:45:33.940Z,72.46
2018-12-05T06:48:02.161Z,73.11
2018-12-05T06:50:30.406Z,73.33
2018-12-05T06:52:58.657Z,73.25
2018-12-05T06:55:26.908Z,73.14
2018-12-05T06:57:55.154Z,73.40
2018-12-05T07:00:23.434Z,73.83
2018-12-05T07:02:51.717Z,73.04
2018-12-05T07:05:19.949Z,73.51
2018-12-05T07:10:41.099Z,74.00
2018-12-05T07:16:02.432Z,73.68
2018-12-05T07:18:30.724Z,74.19
2018-12-05T07:20:59.284Z,73.93
2018-12-05T07:23:27.744Z,73.98
2018-12-05T07:25:56.128Z,73.85
2018-12-05T07:28:24.439Z,73.68
2018-12-05T07:30:52.776Z,73.39
2018-12-05T07:33:21.047Z,73.24
2018-12-05T07:35:49.288Z,73.47
2018-12-05T07:38:19.583Z,73.37
2018-12-05T07:40:47.823Z,73.43
2018-12-05T07:43:16.140Z,73.73
2018-12-05T07:45:44.563Z,73.50
2018-12-05T07:48:12.897Z,73.49
2018-12-05T07:50:41.134Z,73.93
2018-12-05T07:53:09.363Z,74.19
2018-12-05T07:55:37.609Z,74.26
2018-12-05T07:58:05.984Z,73.66
2018-12-05T08:00:34.238Z,73.43
2018-12-05T08:03:02.454Z,73.80
2018-12-05T08:05:30.812Z,73.94
2018-12-05T08:07:59.082Z,73.82
2018-12-05T08:10:27.324Z,74.11
2018-12-05T08:12:55.536Z,73.98
2018-12-05T08:15:23.791Z,74.14
2018-12-05T08:17:52.022Z,73.74
2018-12-05T08:20:20.286Z,74.05
2018-12-05T08:22:48.560Z,74.45
2018-12-05T08:25:16.883Z,74.55
2018-12-05T08:27:45.391Z,74.62
2018-12-05T08:30:13.629Z,74.41
2018-12-05T08:32:41.895Z,74.11
2018-12-05T08:35:10.170Z,74.66
2018-12-05T08:37:38.446Z,74.22
2018-12-05T08:40:06.930Z,74.75
2018-12-05T08:42:35.201Z,74.06
2018-12-05T08:45:03.577Z,74.05
2018-12-05T08:47:33.847Z,74.39
2018-12-05T08:50:02.294Z,73.86
2018-12-05T08:52:30.645Z,73.25
2018-12-05T08:54:58.907Z,73.47
2018-12-05T08:57:27.208Z,73.23
2018-12-05T08:59:55.514Z,72.96
2018-12-05T09:02:23.749Z,73.48
2018-12-05T09:04:52.144Z,72.90
2018-12-05T09:07:20.398Z,72.90
2018-12-05T09:09:48.672Z,73.14
2018-12-05T09:12:16.959Z,72.80
2018-12-05T09:14:45.193Z,72.43
2018-12-05T09:17:13.455Z,72.82
2018-12-05T09:19:41.716Z,73.05
2018-12-05T09:22:09.919Z,73.06
2018-12-05T09:24:38.261Z,72.87
2018-12-05T09:27:06.505Z,72.61
2018-12-05T09:29:34.784Z,72.56
2018-12-05T09:32:03.053Z,73.15
2018-12-05T09:34:31.295Z,72.95
2018-12-05T09:36:59.620Z,72.16
2018-12-05T09:39:28.029Z,72.90
2018-12-05T09:41:56.467Z,72.98
2018-12-05T09:44:24.779Z,72.95
2018-12-05T09:46:53.058Z,73.02
2018-12-05T09:49:21.314Z,72.92
2018-12-05T09:51:49.551Z,73.40
2018-12-05T09:54:17.821Z,73.02
2018-12-05T09:56:46.095Z,73.23
2018-12-05T09:59:14.301Z,73.20
2018-12-05T10:01:42.661Z,73.26
2018-12-05T10:04:11.037Z,72.97
2018-12-05T10:06:39.284Z,72.37
2018-12-05T10:09:09.155Z,72.07
2018-12-05T10:11:37.394Z,71.73
2018-12-05T10:14:05.810Z,71.92
2018-12-05T10:16:34.102Z,72.57
2018-12-05T10:19:02.315Z,72.20
2018-12-05T10:21:30.604Z,72.08
2018-12-05T10:23:58.855Z,72.16
2018-12-05T10:26:27.143Z,72.60
2018-12-05T10:28:55.405Z,72.87
2018-12-05T10:31:23.665Z,72.66
2018-12-05T10:33:51.981Z,71.93
2018-12-05T10:36:20.217Z,71.77
2018-12-05T10:38:48.498Z,71.32
2018-12-05T10:41:16.759Z,71.37
2018-12-05T10:43:45.083Z,71.57
2018-12-05T10:49:06.643Z,71.57
2018-12-05T10:51:34.911Z,72.05
2018-12-05T10:54:03.166Z,71.20
2018-12-05T10:56:31.427Z,71.72
2018-12-05T10:58:59.711Z,71.09
2018-12-05T11:01:33.159Z,71.80
2018-12-05T11:04:05.574Z,71.38
2018-12-05T11:06:39.200Z,70.27
2018-12-05T11:09:13.265Z,70.35
2018-12-05T11:11:46.876Z,70.16
2018-12-05T11:14:20.455Z,70.00
2018-12-05T11:17:51.827Z,69.71
2018-12-05T11:20:25.422Z,69.95
2018-12-05T11:22:58.984Z,70.43
2018-12-05T11:25:27.370Z,69.96
2018-12-05T11:27:55.599Z,70.82
2018-12-05T11:30:23.926Z,70.79
2018-12-05T11:32:52.267Z,70.62
2018-12-05T11:35:20.659Z,70.38
2018-12-05T11:37:48.950Z,70.77
2018-12-05T11:40:17.206Z,70.29
2018-12-05T11:42:45.579Z,71.10
2018-12-05T11:48:06.793Z,70.56
2018-12-05T11:50:35.114Z,70.90
2018-12-05T11:53:03.478Z,71.07
2018-12-05T11:55:31.699Z,70.87
2018-12-05T11:58:00.161Z,71.27
2018-12-05T12:00:28.640Z,71.11
2018-12-05T12:02:56.950Z,70.98
2018-12-05T12:05:28.356Z,70.60
2018-12-05T12:07:56.607Z,70.63
2018-12-05T12:10:29.110Z,69.76
2018-12-05T12:13:02.707Z,70.21
2018-12-05T12:15:31.134Z,70.21
2018-12-05T12:18:00.302Z,69.58
2018-12-05T12:20:28.729Z,69.72
2018-12-05T12:22:57.104Z,69.94
2018-12-05T12:25:25.672Z,70.58
2018-12-05T12:27:53.971Z,71.69
2018-12-05T12:30:22.454Z,71.19
2018-12-05T12:32:50.816Z,71.85
2018-12-05T12:35:19.093Z,71.56
2018-12-05T12:37:47.439Z,71.34
2018-12-05T12:40:15.793Z,71.35
2018-12-05T12:42:44.143Z,71.08
2018-12-05T12:45:12.411Z,71.02
2018-12-05T12:47:40.760Z,70.50
2018-12-05T12:50:09.192Z,69.91
2018-12-05T12:52:37.520Z,69.77
2018-12-05T12:55:06.667Z,69.92
2018-12-05T12:57:35.065Z,69.96
2018-12-05T13:00:03.757Z,69.33
2018-12-05T13:02:32.065Z,69.82
2018-12-05T13:05:00.540Z,69.96
2018-12-05T13:07:28.888Z,70.06
2018-12-05T13:09:57.182Z,69.58
2018-12-05T13:12:29.383Z,69.90
2018-12-05T13:14:58.240Z,70.29
2018-12-05T13:17:26.487Z,70.25
2018-12-05T13:19:54.913Z,70.78
2018-12-05T13:22:23.347Z,70.39
2018-12-05T13:24:51.690Z,70.79
2018-12-05T13:27:20.251Z,71.23
2018-12-05T13:32:41.756Z,70.98
2018-12-05T13:35:10.076Z,71.34
2018-12-05T13:37:38.315Z,71.34
2018-12-05T13:40:06.899Z,71.72
2018-12-05T13:42:35.287Z,71.33
2018-12-05T13:45:03.662Z,71.23
2018-12-05T13:47:31.926Z,71.64
2018-12-05T13:50:00.294Z,71.44
2018-12-05T13:52:28.741Z,71.20
2018-12-05T13:54:57.184Z,71.73
2018-12-05T13:57:25.635Z,72.02
2018-12-05T13:59:54.044Z,72.54
2018-12-05T14:02:22.368Z,72.77
2018-12-05T14:04:50.918Z,72.92
2018-12-05T14:07:19.310Z,73.45
2018-12-05T14:09:47.639Z,73.18
2018-12-05T14:12:21.274Z,73.17
2018-12-05T14:14:49.590Z,73.42
2018-12-05T14:17:17.871Z,73.18
2018-12-05T14:19:46.316Z,73.53
2018-12-05T14:22:14.842Z,73.47
2018-12-05T14:24:43.149Z,73.30
2018-12-05T14:27:11.468Z,73.78
2018-12-05T14:29:39.835Z,73.50
2018-12-05T14:32:08.265Z,73.80
2018-12-05T14:34:36.637Z,73.61
2018-12-05T14:37:05.198Z,73.76
2018-12-05T14:39:33.610Z,73.68
2018-12-05T14:42:02.028Z,73.70
2018-12-05T14:44:30.408Z,73.82
2018-12-05T14:46:59.030Z,73.80
2018-12-05T14:49:27.528Z,73.35
2018-12-05T14:51:56.123Z,74.06
2018-12-05T14:54:24.445Z,73.91
2018-12-05T14:56:53.262Z,73.84
2018-12-05T14:59:21.572Z,73.79
2018-12-05T15:01:49.836Z,73.25
2018-12-05T15:04:18.246Z,73.67
2018-12-05T15:06:46.563Z,73.25
2018-12-05T15:09:14.866Z,73.75
2018-12-05T15:11:43.502Z,73.46
2018-12-05T15:14:11.766Z,73.12
2018-12-05T15:16:40.117Z,73.46
2018-12-05T15:19:08.663Z,73.53
2018-12-05T15:21:36.962Z,73.45
2018-12-05T15:24:05.472Z,73.60
2018-12-05T15:26:33.712Z,73.64
2018-12-05T15:29:02.079Z,73.34
2018-12-05T15:31:30.331Z,74.05
2018-12-05T15:33:58.678Z,73.71
2018-12-05T15:36:27.021Z,73.83
2018-12-05T15:38:55.304Z,73.77
2018-12-05T15:41:23.988Z,74.19
2018-12-05T15:43:52.346Z,73.74
2018-12-05T15:46:20.701Z,74.01
2018-12-05T15:48:49.109Z,73.56
2018-12-05T15:51:17.342Z,73.27
2018-12-05T15:53:45.718Z,73.40
2018-12-05T15:56:13.968Z,73.77
2018-12-05T15:58:42.306Z,73.69
2018-12-05T16:01:10.677Z,73.33
2018-12-05T16:03:43.114Z,73.53
2018-12-05T16:06:10.268Z,74.06
2018-12-05T16:08:38.825Z,73.32
2018-12-05T16:11:07.738Z,73.25
2018-12-05T16:13:36.837Z,73.37
2018-12-05T16:16:06.203Z,72.77
2018-12-05T16:18:34.590Z,72.99
2018-12-05T16:21:03.347Z,73.14
2018-12-05T16:23:31.727Z,73.59
2018-12-05T16:26:00.100Z,73.79
2018-12-05T16:28:28.371Z,73.10
2018-12-05T16:30:56.641Z,72.94
2018-12-05T16:33:25.109Z,72.75
2018-12-05T16:35:53.524Z,72.98
2018-12-05T16:38:21.912Z,73.30
2018-12-05T16:40:50.325Z,72.67
2018-12-05T16:43:18.623Z,72.49
2018-12-05T16:45:47.002Z,73.01
2018-12-05T16:48:15.339Z,73.02
2018-12-05T16:50:43.956Z,72.61
2018-12-05T16:53:12.260Z,72.67
2018-12-05T16:55:40.841Z,72.36
2018-12-05T16:58:09.399Z,72.71
2018-12-05T17:00:38.373Z,72.01
2018-12-05T17:03:06.669Z,71.83
2018-12-05T17:05:35.056Z,72.14
2018-12-05T17:08:03.390Z,71.73
2018-12-05T17:13:24.721Z,70.98
2018-12-05T17:18:46.113Z,71.26
2018-12-05T17:21:14.652Z,70.52
2018-12-05T17:23:43.249Z,70.56
2018-12-05T17:29:05.170Z,69.94
2018-12-05T17:31:33.542Z,69.65
2018-12-05T17:34:02.431Z,69.85
2018-12-05T17:36:30.798Z,69.05
2018-12-05T17:38:59.503Z,68.54
2018-12-05T17:41:27.946Z,69.39
2018-12-05T17:43:56.304Z,69.24
2018-12-05T17:46:24.690Z,68.92
2018-12-05T17:48:52.973Z,69.05
2018-12-05T17:51:21.368Z,69.33
2018-12-05T17:53:49.805Z,69.26
2018-12-05T17:56:18.200Z,68.79
2018-12-05T17:58:46.790Z,68.53
2018-12-05T18:01:15.225Z,68.94
2018-12-05T18:03:43.514Z,68.67
2018-12-05T18:06:11.905Z,68.66
2018-12-05T18:08:40.288Z,68.74
2018-12-05T18:11:08.810Z,68.23
2018-12-05T18:13:37.101Z,68.40
2018-12-05T18:16:06.328Z,68.78
2018-12-05T18:18:34.761Z,69.06
2018-12-05T18:21:03.177Z,67.84
2018-12-05T18:23:32.498Z,68.65
2018-12-05T18:26:01.141Z,67.97
2018-12-05T18:28:29.619Z,68.40
2018-12-05T18:30:57.976Z,68.12
2018-12-05T18:33:26.669Z,68.36
2018-12-05T18:35:55.022Z,67.88
2018-12-05T18:38:23.329Z,67.86
2018-12-05T18:40:51.711Z,67.86
2018-12-05T18:43:20.637Z,67.55
2018-12-05T18:45:48.999Z,67.54
2018-12-05T18:48:17.401Z,67.89
2018-12-05T18:50:45.709Z,67.52
2018-12-05T18:53:14.025Z,67.76
2018-12-05T18:55:42.412Z,67.20
2018-12-05T18:58:10.665Z,67.22
2018-12-05T19:00:39.288Z,67.61
2018-12-05T19:03:07.853Z,68.09
2018-12-05T19:05:36.122Z,67.92
2018-12-05T19:08:04.703Z,67.93
2018-12-05T19:10:33.179Z,67.52
2018-12-05T19:13:01.880Z,67.80
2018-12-05T19:15:30.126Z,68.11
2018-12-05T19:17:58.531Z,67.72
2018-12-05T19:20:26.867Z,67.67
2018-12-05T19:22:55.158Z,67.81
2018-12-05T19:25:23.406Z,67.29
2018-12-05T19:27:51.660Z,67.17
2018-12-05T19:30:19.925Z,67.70
2018-12-05T19:32:48.300Z,67.37
2018-12-05T19:35:16.709Z,67.11
2018-12-05T19:37:45.099Z,67.32
2018-12-05T19:40:13.601Z,67.14
2018-12-05T19:42:42.075Z,67.41
2018-12-05T19:45:11.741Z,67.43
2018-12-05T19:47:40.110Z,67.22
2018-12-05T19:50:08.732Z,67.35
2018-12-05T19:52:37.479Z,66.99
2018-12-05T19:55:05.897Z,67.11
2018-12-05T19:57:34.144Z,66.97
2018-12-05T20:00:02.543Z,67.14
2018-12-05T20:02:30.809Z,66.78
2018-12-05T20:04:59.108Z,67.22
2018-12-05T20:07:27.440Z,66.89
2018-12-05T20:09:55.760Z,66.93
2018-12-05T20:12:24.269Z,67.48
2018-12-05T20:14:52.636Z,66.92
2018-12-05T20:17:21.139Z,67.01
2018-12-05T20:19:49.837Z,67.09
2018-12-05T20:22:18.220Z,67.16
2018-12-05T20:24:46.508Z,67.08
2018-12-05T20:27:14.999Z,67.08
2018-12-05T20:29:43.620Z,67.19
2018-12-05T20:32:12.441Z,67.32
2018-12-05T20:34:40.796Z,67.42
2018-12-05T20:37:09.610Z,67.29
2018-12-05T20:39:38.011Z,67.14
2018-12-05T20:42:06.377Z,67.35
2018-12-05T20:44:34.926Z,67.57
2018-12-05T20:47:03.537Z,67.49
2018-12-05T20:49:31.837Z,67.64
2018-12-05T20:52:06.722Z,67.60
2018-12-05T20:54:35.078Z,67.36
2018-12-05T20:57:03.459Z,67.85
2018-12-05T20:59:31.759Z,67.98
2018-12-05T21:02:00.158Z,68.00
2018-12-05T21:04:28.674Z,67.88
2018-12-05T21:06:57.055Z,67.99
2018-12-05T21:09:25.385Z,67.80
2018-12-05T21:11:53.764Z,67.81
2018-12-05T21:14:22.130Z,67.62
2018-12-05T21:16:50.479Z,68.59
2018-12-05T21:19:18.843Z,68.34
2018-12-05T21:21:47.171Z,69.02
2018-12-05T21:24:28.206Z,67.58
2018-12-05T21:26:56.827Z,68.42
2018-12-05T21:29:25.185Z,67.82
2018-12-05T21:31:53.603Z,68.55
2018-12-05T21:37:15.552Z,68.07
2018-12-05T21:39:44.597Z,68.65
2018-12-05T21:42:13.456Z,68.12
2018-12-05T21:44:41.865Z,67.90
2018-12-05T21:47:10.776Z,68.29
2018-12-05T21:49:39.733Z,68.33
2018-12-05T21:52:08.264Z,68.52
2018-12-05T21:54:36.965Z,68.39
2018-12-05T21:57:06.359Z,68.79
2018-12-05T21:59:35.589Z,69.03
2018-12-05T22:02:04.539Z,68.65
2018-12-05T22:04:33.487Z,69.48
2018-12-05T22:07:01.827Z,69.10
2018-12-05T22:09:30.201Z,68.61
2018-12-05T22:11:58.539Z,69.18
2018-12-05T22:14:27.034Z,69.66
2018-12-05T22:16:55.342Z,69.49
2018-12-05T22:19:23.640Z,69.55
2018-12-05T22:21:51.910Z,69.84
2018-12-05T22:24:20.190Z,70.23
2018-12-05T22:26:48.460Z,69.71
2018-12-05T22:29:16.796Z,69.92
2018-12-05T22:31:45.063Z,70.75
2018-12-05T22:34:13.377Z,70.93
2018-12-05T22:36:41.675Z,70.70
2018-12-05T22:39:10.637Z,70.88
2018-12-05T22:41:38.917Z,70.98
2018-12-05T22:44:07.217Z,70.83
2018-12-05T22:46:35.511Z,71.27
2018-12-05T22:49:03.768Z,70.73
2018-12-05T22:51:32.067Z,71.18
2018-12-05T22:54:00.304Z,71.29
2018-12-05T22:56:28.666Z,70.60
2018-12-05T22:58:56.969Z,71.05
2018-12-05T23:01:26.063Z,70.65
2018-12-05T23:03:54.364Z,70.82
2018-12-05T23:06:22.604Z,71.45
2018-12-05T23:08:50.863Z,71.65
2018-12-05T23:11:19.244Z,71.36
2018-12-05T23:13:47.590Z,71.96
2018-12-05T23:16:15.859Z,71.73
2018-12-05T23:18:44.089Z,71.31
2018-12-05T23:21:12.363Z,71.63
2018-12-05T23:23:40.657Z,71.71
2018-12-05T23:26:08.877Z,71.89
2018-12-05T23:28:37.220Z,72.01
2018-12-05T23:31:05.493Z,71.96
2018-12-05T23:33:33.862Z,71.72
2018-12-05T23:36:02.273Z,71.52
2018-12-05T23:38:30.510Z,72.42
2018-12-05T23:40:58.752Z,71.63
2018-12-05T23:43:26.991Z,72.09
2018-12-05T23:45:55.236Z,72.23
2018-12-05T23:48:23.465Z,72.54
2018-12-05T23:50:51.802Z,72.88
2018-12-05T23:53:20.085Z,72.92
2018-12-05T23:55:48.511Z,73.18
2018-12-05T23:58:16.733Z,72.76
